Accueil
METAR-TAF:

METAR-TAF

Aéroports :

Aéroport de Dzaoudzi-Pamandzi

Dzaoudzi, Mayotte

latitude: 12-48S, longitude: 045-17E, altitude: 8 m

Observation

Le bulletin a été fait il y a 17 minutes, à 01:30 UTC
Vent 9 kt de sud
Température 24°C
Humidité 74%
Pression 1015 hPa
Visibilité 10 km ou plus
Quelques nuages à une hauteur de 2700 ft

METAR: FMCZ 110130Z AUTO 17009KT 9999 FEW027 24/19 Q1015 NOSIG

Heure: 04:47 (01:47 UTC)

Prévision

Le bulletin a été fait il y a 2 heures et 47 minutes, à 23:00 UTC
Prévision valable du 11 à 00 UTC au 11 à 24 UTC
Vent 2 kt de direction variable
Visibilité 10 km ou plus
Quelques nuages à une hauteur de 2700 ft
Evoluant progressivement
du 11 à 07 UTC au 11 à 09 UTC
Vent 10 kt de sud

TAF: FMCZ 102300Z 1100/1124 VRB02KT 9999 FEW027 BECMG 1107/1109 18010KT

Observations et prévisions météorologiques de plus de 4000 aéroports (messages METAR et TAF).

Les stations disponibles sont représentées par des disques jaunes et rouges sur la carte.

Passer la souris dessus pour voir le nom de la station.

Cliquer dessus pour voir les observations et prévisions météorologiques.

Pour changer de carte: cliquez sur les boutons verts avec une croix noire pour zoomer, sur le bouton vert avec un tiret pour effectuer un zoom arrière, ou sur les flèches vertes pour les cartes adjacentes.


METAR-TAF: